createdAt,value
2018-06-09T00:02:28.789Z,80.30
2018-06-09T00:05:01.678Z,77.90
2018-06-09T00:07:34.702Z,83.20
2018-06-09T00:10:08.675Z,79.90
2018-06-09T00:12:41.986Z,79.40
2018-06-09T00:15:15.209Z,78.13
2018-06-09T00:17:48.961Z,77.97
2018-06-09T00:20:21.916Z,79.47
2018-06-09T00:22:55.545Z,81.80
2018-06-09T00:25:36.518Z,77.27
2018-06-09T00:28:10.497Z,70.37
2018-06-09T00:30:45.357Z,73.40
2018-06-09T00:33:23.845Z,72.53
2018-06-09T00:38:50.755Z,66.37
2018-06-09T00:41:24.821Z,71.27
2018-06-09T00:43:58.308Z,65.93
2018-06-09T00:46:32.093Z,65.20
2018-06-09T00:49:05.758Z,65.10
2018-06-09T00:51:38.664Z,69.30
2018-06-09T00:54:14.975Z,66.00
2018-06-09T00:56:49.103Z,73.87
2018-06-09T00:59:22.272Z,70.23
2018-06-09T01:01:55.825Z,74.80
2018-06-09T01:04:28.233Z,69.73
2018-06-09T01:07:09.170Z,74.73
2018-06-09T01:09:43.058Z,73.90
2018-06-09T01:12:24.054Z,71.73
2018-06-09T01:14:56.676Z,72.10
2018-06-09T01:17:30.087Z,77.83
2018-06-09T01:20:03.695Z,82.90
2018-06-09T01:22:46.538Z,76.80
2018-06-09T01:25:21.433Z,73.53
2018-06-09T01:28:00.422Z,85.10
2018-06-09T01:30:34.173Z,85.67
2018-06-09T01:33:06.625Z,83.90
2018-06-09T01:35:39.896Z,85.93
2018-06-09T01:38:17.512Z,85.43
2018-06-09T01:40:54.071Z,83.70
2018-06-09T01:43:27.896Z,82.73
2018-06-09T01:46:00.906Z,76.40
2018-06-09T01:48:33.722Z,82.47
2018-06-09T01:51:06.760Z,78.43
2018-06-09T01:53:41.284Z,78.40
2018-06-09T01:56:13.691Z,77.73
2018-06-09T01:58:46.162Z,89.13
2018-06-09T02:01:18.492Z,76.83
2018-06-09T02:03:53.825Z,88.40
2018-06-09T02:06:28.908Z,89.60
2018-06-09T02:09:00.997Z,98.30
2018-06-09T02:11:34.035Z,101.67
2018-06-09T02:14:06.794Z,96.37
2018-06-09T02:16:39.942Z,112.50
2018-06-09T02:19:13.981Z,113.00
2018-06-09T02:21:47.263Z,112.70
2018-06-09T02:24:20.821Z,115.70
2018-06-09T02:26:54.393Z,120.33
2018-06-09T02:29:27.822Z,117.07
2018-06-09T02:32:00.216Z,145.47
2018-06-09T02:34:33.109Z,120.00
2018-06-09T02:37:06.395Z,107.37
2018-06-09T02:39:39.180Z,139.13
2018-06-09T02:42:12.078Z,134.40
2018-06-09T02:44:44.150Z,131.43
2018-06-09T02:47:17.123Z,131.67
2018-06-09T02:49:51.526Z,167.67
2018-06-09T02:52:25.745Z,145.03
2018-06-09T02:55:00.607Z,143.17
2018-06-09T02:57:34.019Z,134.87
2018-06-09T03:00:11.440Z,147.43
2018-06-09T03:02:44.100Z,160.93
2018-06-09T03:05:18.978Z,140.40
2018-06-09T03:07:52.850Z,146.17
2018-06-09T03:10:32.182Z,179.90
2018-06-09T03:13:04.655Z,144.67
2018-06-09T03:15:37.771Z,154.73
2018-06-09T03:18:13.274Z,153.83
2018-06-09T03:20:46.620Z,138.27
2018-06-09T03:23:20.158Z,124.10
2018-06-09T03:25:51.727Z,114.80
2018-06-09T03:28:25.577Z,151.47
2018-06-09T03:30:59.938Z,156.67
2018-06-09T03:33:37.912Z,129.30
2018-06-09T03:36:12.353Z,131.03
2018-06-09T03:38:44.897Z,138.73
2018-06-09T03:41:17.540Z,120.03
2018-06-09T03:43:50.715Z,118.93
2018-06-09T03:46:23.352Z,111.93
2018-06-09T03:48:56.389Z,106.00
2018-06-09T03:51:31.968Z,106.70
2018-06-09T03:54:04.171Z,104.87
2018-06-09T03:56:43.678Z,110.87
2018-06-09T03:59:24.568Z,104.33
2018-06-09T04:01:58.634Z,99.03
2018-06-09T04:04:33.201Z,93.90
2018-06-09T04:07:05.480Z,90.73
2018-06-09T04:09:41.929Z,93.90
2018-06-09T04:12:16.744Z,81.47
2018-06-09T04:14:50.291Z,80.63
2018-06-09T04:17:23.769Z,73.20
2018-06-09T04:19:57.411Z,76.97
2018-06-09T04:22:30.902Z,69.23
2018-06-09T04:25:03.694Z,64.00
2018-06-09T04:27:37.529Z,61.13
2018-06-09T04:30:11.220Z,57.43
2018-06-09T04:32:51.098Z,57.10
2018-06-09T04:35:28.109Z,55.43
2018-06-09T04:38:02.186Z,50.07
2018-06-09T04:40:35.244Z,46.80
2018-06-09T04:43:09.375Z,48.47
2018-06-09T04:45:43.048Z,44.50
2018-06-09T04:48:20.693Z,47.50
2018-06-09T04:50:52.284Z,44.77
2018-06-09T04:53:25.344Z,44.23
2018-06-09T04:55:57.830Z,41.67
2018-06-09T04:58:32.073Z,42.73
2018-06-09T05:01:06.618Z,39.27
2018-06-09T05:03:40.351Z,43.67
2018-06-09T05:06:13.137Z,41.37
2018-06-09T05:08:45.194Z,36.00
2018-06-09T05:11:19.151Z,38.83
2018-06-09T05:13:54.145Z,40.40
2018-06-09T05:16:31.110Z,32.97
2018-06-09T05:19:13.593Z,37.10
2018-06-09T05:24:58.072Z,37.33
2018-06-09T05:27:31.316Z,30.20
2018-06-09T05:30:05.099Z,31.63
2018-06-09T05:32:38.563Z,34.17
2018-06-09T05:35:13.020Z,30.80
2018-06-09T05:37:45.632Z,26.87
2018-06-09T05:40:24.363Z,32.43
2018-06-09T05:42:58.146Z,29.40
2018-06-09T05:45:30.523Z,25.57
2018-06-09T05:48:03.714Z,25.40
2018-06-09T05:50:37.608Z,32.60
2018-06-09T05:53:21.272Z,30.23
2018-06-09T05:56:02.750Z,26.97
2018-06-09T05:58:43.546Z,28.90
2018-06-09T06:01:17.770Z,26.77
2018-06-09T06:03:55.699Z,26.30
2018-06-09T06:06:33.819Z,26.27
2018-06-09T06:09:08.785Z,28.30
2018-06-09T06:11:42.711Z,25.17
2018-06-09T06:14:16.085Z,31.17
2018-06-09T06:16:49.901Z,27.73
2018-06-09T06:19:25.440Z,29.37
2018-06-09T06:21:58.743Z,27.17
2018-06-09T06:24:36.736Z,26.97
2018-06-09T06:27:10.699Z,24.20
2018-06-09T06:29:46.820Z,28.50
2018-06-09T06:32:21.135Z,26.80
2018-06-09T06:34:54.134Z,23.13
2018-06-09T06:37:27.578Z,24.13
2018-06-09T06:40:01.812Z,21.53
2018-06-09T06:42:33.697Z,25.00
2018-06-09T06:45:07.841Z,22.50
2018-06-09T06:47:46.926Z,23.90
2018-06-09T06:50:22.174Z,24.37
2018-06-09T06:52:56.611Z,24.47
2018-06-09T06:55:29.723Z,22.93
2018-06-09T06:58:12.274Z,25.20
2018-06-09T07:00:46.198Z,24.93
2018-06-09T07:03:18.853Z,24.33
2018-06-09T07:05:52.414Z,25.50
2018-06-09T07:08:24.580Z,22.57
2018-06-09T07:10:56.174Z,21.97
2018-06-09T07:14:34.934Z,19.83
2018-06-09T07:17:06.140Z,21.83
2018-06-09T07:19:37.016Z,22.90
2018-06-09T07:22:07.766Z,24.87
2018-06-09T07:24:38.313Z,23.20
2018-06-09T07:27:09.479Z,25.83
2018-06-09T07:29:41.541Z,24.23
2018-06-09T07:32:13.719Z,29.77
2018-06-09T07:34:50.765Z,23.33
2018-06-09T07:37:22.832Z,22.23
2018-06-09T07:39:54.658Z,26.90
2018-06-09T07:42:26.224Z,26.37
2018-06-09T07:45:01.968Z,25.17
2018-06-09T07:47:40.824Z,23.00
2018-06-09T07:50:14.060Z,26.80
2018-06-09T07:52:48.195Z,24.90
2018-06-09T07:55:21.278Z,23.27
2018-06-09T07:57:54.736Z,27.33
2018-06-09T08:00:28.386Z,27.87
2018-06-09T08:03:01.233Z,26.10
2018-06-09T08:05:33.635Z,25.10
2018-06-09T08:08:06.407Z,28.33
2018-06-09T08:10:38.724Z,25.53
2018-06-09T08:13:12.819Z,21.97
2018-06-09T08:15:50.472Z,27.33
2018-06-09T08:18:21.060Z,27.03
2018-06-09T08:20:53.666Z,27.00
2018-06-09T08:23:25.589Z,27.47
2018-06-09T08:25:59.700Z,28.60
2018-06-09T08:28:33.976Z,31.30
2018-06-09T08:31:05.031Z,27.53
2018-06-09T08:33:35.795Z,24.43
2018-06-09T08:36:07.683Z,23.53
2018-06-09T08:38:38.751Z,28.67
2018-06-09T08:41:09.768Z,28.20
2018-06-09T08:43:40.936Z,24.23
2018-06-09T08:46:12.779Z,28.10
2018-06-09T08:48:43.862Z,34.00
2018-06-09T08:51:14.869Z,27.87
2018-06-09T08:53:45.810Z,28.47
2018-06-09T08:56:16.532Z,28.67
2018-06-09T08:58:47.348Z,29.27
2018-06-09T09:01:18.230Z,29.27
2018-06-09T09:03:49.539Z,34.47
2018-06-09T09:06:20.341Z,30.70
2018-06-09T09:08:51.648Z,33.93
2018-06-09T09:11:22.087Z,26.97
2018-06-09T09:13:54.865Z,28.70
2018-06-09T09:16:26.524Z,27.07
2018-06-09T09:19:14.627Z,24.90
2018-06-09T09:21:48.787Z,32.67
2018-06-09T09:24:19.662Z,29.23
2018-06-09T09:26:50.650Z,31.30
2018-06-09T09:29:22.640Z,32.40
2018-06-09T09:31:54.153Z,35.00
2018-06-09T09:34:27.277Z,33.77
2018-06-09T09:36:57.885Z,28.50
2018-06-09T09:39:28.231Z,25.30
2018-06-09T09:41:59.732Z,28.55
2018-06-09T09:44:30.566Z,27.13
2018-06-09T09:47:00.624Z,28.85
2018-06-09T09:49:31.903Z,25.50
2018-06-09T09:52:03.791Z,28.30
2018-06-09T09:54:34.292Z,29.72
2018-06-09T09:57:04.772Z,29.00
2018-06-09T09:59:35.376Z,33.40
2018-06-09T10:02:08.716Z,30.37
2018-06-09T10:04:40.664Z,31.97
2018-06-09T10:07:11.740Z,28.97
2018-06-09T10:09:42.553Z,28.07
2018-06-09T10:12:13.364Z,27.40
2018-06-09T10:14:44.336Z,31.15
2018-06-09T10:17:15.217Z,28.12
2018-06-09T10:19:45.796Z,32.60
2018-06-09T10:22:16.955Z,30.48
2018-06-09T10:24:47.570Z,30.75
2018-06-09T10:27:27.476Z,30.72
2018-06-09T10:29:58.750Z,31.65
2018-06-09T10:32:29.072Z,33.78
2018-06-09T10:34:59.324Z,35.45
2018-06-09T10:37:29.659Z,38.92
2018-06-09T10:40:02.134Z,28.73
2018-06-09T10:42:33.101Z,31.23
2018-06-09T10:45:03.985Z,30.00
2018-06-09T10:47:39.076Z,33.75
2018-06-09T10:50:09.368Z,36.85
2018-06-09T10:52:39.908Z,39.70
2018-06-09T10:55:11.380Z,30.92
2018-06-09T10:57:42.105Z,36.13
2018-06-09T11:00:12.886Z,30.90
2018-06-09T11:02:44.194Z,34.33
2018-06-09T11:08:18.291Z,32.17
2018-06-09T11:10:49.278Z,30.75
2018-06-09T11:13:22.491Z,26.57
2018-06-09T11:15:53.080Z,25.52
2018-06-09T11:18:23.303Z,29.40
2018-06-09T11:20:54.393Z,26.37
2018-06-09T11:23:24.245Z,26.87
2018-06-09T11:25:55.855Z,28.35
2018-06-09T11:28:25.335Z,25.57
2018-06-09T11:31:01.282Z,30.95
2018-06-09T11:33:31.910Z,25.62
2018-06-09T11:36:05.065Z,27.75
2018-06-09T11:38:36.707Z,26.52
2018-06-09T11:41:08.000Z,30.20
2018-06-09T11:43:40.286Z,28.00
2018-06-09T11:46:11.016Z,23.92
2018-06-09T11:48:42.029Z,26.70
2018-06-09T11:51:11.941Z,25.12
2018-06-09T11:53:43.773Z,20.85
2018-06-09T11:56:13.645Z,22.65
2018-06-09T11:58:45.863Z,24.77
2018-06-09T12:01:17.666Z,25.65
2018-06-09T12:03:47.005Z,23.35
2018-06-09T12:06:18.568Z,21.60
2018-06-09T12:08:48.930Z,25.15
2018-06-09T12:11:18.996Z,29.18
2018-06-09T12:13:49.406Z,26.68
2018-06-09T12:16:20.775Z,31.30
2018-06-09T12:18:54.997Z,26.70
2018-06-09T12:21:26.506Z,25.62
2018-06-09T12:23:56.925Z,24.70
2018-06-09T12:26:27.334Z,26.02
2018-06-09T12:28:58.265Z,21.52
2018-06-09T12:31:29.059Z,25.10
2018-06-09T12:33:59.459Z,29.50
2018-06-09T12:36:29.247Z,28.27
2018-06-09T12:39:00.895Z,30.35
2018-06-09T12:41:31.141Z,25.02
2018-06-09T12:44:02.289Z,21.77
2018-06-09T12:46:32.764Z,24.85
2018-06-09T12:49:04.419Z,18.82
2018-06-09T12:51:34.684Z,21.10
2018-06-09T12:54:10.381Z,21.35
2018-06-09T12:56:41.646Z,24.05
2018-06-09T12:59:12.577Z,18.65
2018-06-09T13:01:43.422Z,29.07
2018-06-09T13:04:15.072Z,27.32
2018-06-09T13:06:44.636Z,25.75
2018-06-09T13:09:19.165Z,29.55
2018-06-09T13:11:50.456Z,30.25
2018-06-09T13:14:22.020Z,29.40
2018-06-09T13:16:52.747Z,29.92
2018-06-09T13:19:23.103Z,22.98
2018-06-09T13:21:55.692Z,23.02
2018-06-09T13:24:27.083Z,25.82
2018-06-09T13:26:56.898Z,22.82
2018-06-09T13:29:27.180Z,25.45
2018-06-09T13:31:58.164Z,22.32
2018-06-09T13:34:28.935Z,26.52
2018-06-09T13:36:59.274Z,25.52
2018-06-09T13:39:29.891Z,27.58
2018-06-09T13:42:01.681Z,22.80
2018-06-09T13:44:34.069Z,25.95
2018-06-09T13:47:05.509Z,25.00
2018-06-09T13:49:35.853Z,33.65
2018-06-09T13:52:06.199Z,25.35
2018-06-09T13:54:36.459Z,26.90
2018-06-09T13:57:07.057Z,25.65
2018-06-09T13:59:37.016Z,28.80
2018-06-09T14:02:08.510Z,25.80
2018-06-09T14:04:42.396Z,21.97
2018-06-09T14:07:12.758Z,21.77
2018-06-09T14:09:45.333Z,27.05
2018-06-09T14:12:16.039Z,25.05
2018-06-09T14:14:52.153Z,21.65
2018-06-09T14:17:24.679Z,22.37
2018-06-09T14:20:00.324Z,21.25
2018-06-09T14:22:29.910Z,18.02
2018-06-09T14:24:59.640Z,19.98
2018-06-09T14:27:29.848Z,23.98
2018-06-09T14:30:00.820Z,21.10
2018-06-09T14:32:31.277Z,23.32
2018-06-09T14:35:00.857Z,24.72
2018-06-09T14:37:32.277Z,20.45
2018-06-09T14:40:02.835Z,22.98
2018-06-09T14:42:33.199Z,22.45
2018-06-09T14:45:03.805Z,25.57
2018-06-09T14:47:35.077Z,24.85
2018-06-09T14:50:05.907Z,24.80
2018-06-09T14:52:37.022Z,24.82
2018-06-09T14:55:08.843Z,23.40
2018-06-09T14:57:39.359Z,25.23
2018-06-09T15:00:10.793Z,22.07
2018-06-09T15:02:46.372Z,21.35
2018-06-09T15:05:17.304Z,22.70
2018-06-09T15:07:48.062Z,22.73
2018-06-09T15:10:18.882Z,22.00
2018-06-09T15:12:48.587Z,27.17
2018-06-09T15:15:19.605Z,22.67
2018-06-09T15:17:50.456Z,23.55
2018-06-09T15:20:23.523Z,26.68
2018-06-09T15:22:53.732Z,27.80
2018-06-09T15:25:24.080Z,23.42
2018-06-09T15:27:55.188Z,21.90
2018-06-09T15:30:26.204Z,23.65
2018-06-09T15:32:56.541Z,20.10
2018-06-09T15:35:26.891Z,24.05
2018-06-09T15:37:57.202Z,22.10
2018-06-09T15:40:28.251Z,20.40
2018-06-09T15:42:58.443Z,21.73
2018-06-09T15:45:49.491Z,22.80
2018-06-09T15:48:20.560Z,25.30
2018-06-09T15:50:51.189Z,23.22
2018-06-09T15:53:22.841Z,18.73
2018-06-09T15:55:55.012Z,20.62
2018-06-09T15:58:28.326Z,24.10
2018-06-09T16:00:59.823Z,21.85
2018-06-09T16:03:30.392Z,26.97
2018-06-09T16:06:04.956Z,25.60
2018-06-09T16:08:35.632Z,21.68
2018-06-09T16:11:06.635Z,21.62
2018-06-09T16:13:37.705Z,21.45
2018-06-09T16:16:07.723Z,22.80
2018-06-09T16:18:38.773Z,21.68
2018-06-09T16:21:08.450Z,21.33
2018-06-09T16:23:39.530Z,18.77
2018-06-09T16:26:10.150Z,20.35
2018-06-09T16:28:40.470Z,19.98
2018-06-09T16:31:13.462Z,22.17
2018-06-09T16:33:43.572Z,21.05
2018-06-09T16:36:14.065Z,22.17
2018-06-09T16:38:44.219Z,18.70
2018-06-09T16:41:17.031Z,19.17
2018-06-09T16:43:46.959Z,18.05
2018-06-09T16:46:17.269Z,19.62
2018-06-09T16:48:47.569Z,19.77
2018-06-09T16:51:17.482Z,21.85
2018-06-09T16:53:48.190Z,19.70
2018-06-09T16:56:18.288Z,23.70
2018-06-09T16:58:48.669Z,19.30
2018-06-09T17:01:20.479Z,18.12
2018-06-09T17:03:50.383Z,19.57
2018-06-09T17:06:20.985Z,20.62
2018-06-09T17:09:00.175Z,21.65
2018-06-09T17:11:31.300Z,21.27
2018-06-09T17:14:09.813Z,23.47
2018-06-09T17:16:42.133Z,23.25
2018-06-09T17:19:13.566Z,24.10
2018-06-09T17:21:43.795Z,22.02
2018-06-09T17:24:15.183Z,21.68
2018-06-09T17:26:46.113Z,21.75
2018-06-09T17:29:16.740Z,22.48
2018-06-09T17:31:47.380Z,27.45
2018-06-09T17:34:19.098Z,24.25
2018-06-09T17:36:49.771Z,23.60
2018-06-09T17:39:30.000Z,22.50
2018-06-09T17:42:00.455Z,24.47
2018-06-09T17:44:31.376Z,25.40
2018-06-09T17:47:02.883Z,23.50
2018-06-09T17:49:35.312Z,23.87
2018-06-09T17:52:06.241Z,22.80
2018-06-09T17:54:40.300Z,22.10
2018-06-09T17:57:10.340Z,22.93
2018-06-09T17:59:40.501Z,25.37
2018-06-09T18:02:11.059Z,25.27
2018-06-09T18:04:42.811Z,21.73
2018-06-09T18:07:13.376Z,22.07
2018-06-09T18:09:45.508Z,21.17
2018-06-09T18:12:16.519Z,20.63
2018-06-09T18:14:46.846Z,22.33
2018-06-09T18:17:16.989Z,21.40
2018-06-09T18:19:47.025Z,19.90
2018-06-09T18:22:16.992Z,22.83
2018-06-09T18:24:47.231Z,20.20
2018-06-09T18:27:20.040Z,21.53
2018-06-09T18:29:51.317Z,20.90
2018-06-09T18:32:21.309Z,20.90
2018-06-09T18:34:52.874Z,23.63
2018-06-09T18:37:25.567Z,20.90
2018-06-09T18:39:55.516Z,21.57
2018-06-09T18:42:37.555Z,22.03
2018-06-09T18:45:09.489Z,19.17
2018-06-09T18:47:39.998Z,19.50
2018-06-09T18:50:11.036Z,20.30
2018-06-09T18:52:41.524Z,21.23
2018-06-09T18:55:12.374Z,20.97
2018-06-09T18:57:42.378Z,19.70
2018-06-09T19:00:18.762Z,20.00
2018-06-09T19:02:49.515Z,19.47
2018-06-09T19:05:20.107Z,19.93
2018-06-09T19:07:50.253Z,19.03
2018-06-09T19:10:21.144Z,21.67
2018-06-09T19:12:51.484Z,21.10
2018-06-09T19:15:29.477Z,20.80
2018-06-09T19:17:59.907Z,18.63
2018-06-09T19:20:31.468Z,18.97
2018-06-09T19:23:02.848Z,21.00
2018-06-09T19:25:36.873Z,19.83
2018-06-09T19:28:07.303Z,22.17
2018-06-09T19:30:37.847Z,20.17
2018-06-09T19:33:08.633Z,18.60
2018-06-09T19:35:39.479Z,21.30
2018-06-09T19:38:14.148Z,17.90
2018-06-09T19:40:46.446Z,19.27
2018-06-09T19:43:18.459Z,23.87
2018-06-09T19:45:50.638Z,21.57
2018-06-09T19:48:20.785Z,20.63
2018-06-09T19:50:56.107Z,22.27
2018-06-09T19:53:28.787Z,22.40
2018-06-09T19:58:55.575Z,21.00
2018-06-09T20:01:27.915Z,22.37
2018-06-09T20:03:59.992Z,30.90
2018-06-09T20:06:31.236Z,22.23
2018-06-09T20:09:02.618Z,23.23
2018-06-09T20:11:34.439Z,20.53
2018-06-09T20:14:05.929Z,25.83
2018-06-09T20:16:38.692Z,24.30
2018-06-09T20:19:11.213Z,23.90
2018-06-09T20:21:42.077Z,21.00
2018-06-09T20:24:14.965Z,23.57
2018-06-09T20:26:49.079Z,20.10
2018-06-09T20:29:20.629Z,18.80
2018-06-09T20:31:56.241Z,20.63
2018-06-09T20:34:28.417Z,22.63
2018-06-09T20:36:59.040Z,20.17
2018-06-09T20:39:35.266Z,21.43
2018-06-09T20:42:06.380Z,23.37
2018-06-09T20:44:42.092Z,23.03
2018-06-09T20:47:14.708Z,22.17
2018-06-09T20:49:51.916Z,24.93
2018-06-09T20:52:24.141Z,23.33
2018-06-09T20:55:00.924Z,29.20
2018-06-09T20:57:34.178Z,26.13
2018-06-09T21:00:06.618Z,27.60
2018-06-09T21:02:39.461Z,24.33
2018-06-09T21:05:11.063Z,23.93
2018-06-09T21:07:42.639Z,23.63
2018-06-09T21:10:16.850Z,21.73
2018-06-09T21:12:48.326Z,19.67
2018-06-09T21:15:19.656Z,24.30
2018-06-09T21:17:51.326Z,22.53
2018-06-09T21:20:27.956Z,19.33
2018-06-09T21:22:59.558Z,17.30
2018-06-09T21:25:30.750Z,22.70
2018-06-09T21:28:07.274Z,16.30
2018-06-09T21:30:44.433Z,17.23
2018-06-09T21:34:34.188Z,21.90
2018-06-09T21:37:15.751Z,19.50
2018-06-09T21:39:56.895Z,19.03
2018-06-09T21:42:36.874Z,20.23
2018-06-09T21:45:16.796Z,18.80
2018-06-09T21:47:51.040Z,19.70
2018-06-09T21:50:25.805Z,19.20
2018-06-09T21:52:58.650Z,21.87
2018-06-09T21:55:31.584Z,20.17
2018-06-09T21:58:03.896Z,17.90
2018-06-09T22:00:36.043Z,20.57
2018-06-09T22:03:08.195Z,16.40
2018-06-09T22:05:40.707Z,16.53
2018-06-09T22:08:13.797Z,20.33
2018-06-09T22:10:46.800Z,18.40
2018-06-09T22:13:21.201Z,18.20
2018-06-09T22:15:56.571Z,21.67
2018-06-09T22:18:29.661Z,19.57
2018-06-09T22:21:03.309Z,18.83
2018-06-09T22:23:39.987Z,18.17
2018-06-09T22:26:15.255Z,20.27
2018-06-09T22:28:48.188Z,17.63
2018-06-09T22:31:20.106Z,20.60
2018-06-09T22:33:52.956Z,22.13
2018-06-09T22:36:25.462Z,23.07
2018-06-09T22:38:57.744Z,22.67
2018-06-09T22:41:35.446Z,19.03
2018-06-09T22:44:08.559Z,21.53
2018-06-09T22:46:42.035Z,19.70
2018-06-09T22:49:16.877Z,23.00
2018-06-09T22:51:47.413Z,26.43
2018-06-09T22:54:27.157Z,21.37
2018-06-09T22:56:58.711Z,24.00
2018-06-09T22:59:34.640Z,27.90
2018-06-09T23:02:05.423Z,29.70
2018-06-09T23:04:36.410Z,25.87
2018-06-09T23:07:11.766Z,21.67
2018-06-09T23:09:43.040Z,27.90
2018-06-09T23:12:13.250Z,28.97
2018-06-09T23:14:44.506Z,30.83
2018-06-09T23:17:16.631Z,34.37
2018-06-09T23:19:48.731Z,32.73
2018-06-09T23:22:20.828Z,32.87
2018-06-09T23:24:52.084Z,33.97
2018-06-09T23:27:23.455Z,29.77
2018-06-09T23:29:54.741Z,32.27
2018-06-09T23:32:26.445Z,30.97
2018-06-09T23:34:58.322Z,38.27
2018-06-09T23:37:29.716Z,38.73
2018-06-09T23:40:01.417Z,31.83
2018-06-09T23:42:33.990Z,30.83
2018-06-09T23:45:06.391Z,33.30
2018-06-09T23:47:38.623Z,30.90
2018-06-09T23:50:10.770Z,36.77
2018-06-09T23:52:47.571Z,33.87
2018-06-09T23:55:18.978Z,33.63
2018-06-09T23:57:52.368Z,31.93
